sensor_id;sensor_type;location;lat;lon;timestamp;P1;durP1;ratioP1;P2;durP2;ratioP2
74293;SDS011;62688;59.904;10.738;2022-09-09T00:05:31;0.90;;;0.40;;
74293;SDS011;62688;59.904;10.738;2022-09-09T00:07:51;1.08;;;0.40;;
74293;SDS011;62688;59.904;10.738;2022-09-09T00:16:12;0.80;;;0.17;;
74293;SDS011;62688;59.904;10.738;2022-09-09T00:24:24;2.20;;;0.32;;
74293;SDS011;62688;59.904;10.738;2022-09-09T00:27:17;1.38;;;0.30;;
74293;SDS011;62688;59.904;10.738;2022-09-09T00:29:45;0.63;;;0.30;;
74293;SDS011;62688;59.904;10.738;2022-09-09T00:32:19;0.45;;;0.30;;
74293;SDS011;62688;59.904;10.738;2022-09-09T00:37:50;1.65;;;0.40;;
74293;SDS011;62688;59.904;10.738;2022-09-09T00:40:38;0.43;;;0.40;;
74293;SDS011;62688;59.904;10.738;2022-09-09T00:54:23;0.55;;;0.40;;
74293;SDS011;62688;59.904;10.738;2022-09-09T01:05:30;0.60;;;0.40;;
74293;SDS011;62688;59.904;10.738;2022-09-09T01:08:00;0.60;;;0.38;;
74293;SDS011;62688;59.904;10.738;2022-09-09T01:13:16;1.63;;;0.60;;
74293;SDS011;62688;59.904;10.738;2022-09-09T01:15:49;1.95;;;0.40;;
74293;SDS011;62688;59.904;10.738;2022-09-09T01:18:19;0.32;;;0.30;;
74293;SDS011;62688;59.904;10.738;2022-09-09T01:26:41;0.65;;;0.40;;
74293;SDS011;62688;59.904;10.738;2022-09-09T01:29:16;0.68;;;0.47;;
74293;SDS011;62688;59.904;10.738;2022-09-09T01:31:56;0.35;;;0.35;;
74293;SDS011;62688;59.904;10.738;2022-09-09T01:34:25;0.40;;;0.30;;
74293;SDS011;62688;59.904;10.738;2022-09-09T01:39:29;1.02;;;0.40;;
74293;SDS011;62688;59.904;10.738;2022-09-09T01:41:56;0.68;;;0.40;;
74293;SDS011;62688;59.904;10.738;2022-09-09T01:44:22;0.75;;;0.30;;
74293;SDS011;62688;59.904;10.738;2022-09-09T01:46:49;0.52;;;0.40;;
74293;SDS011;62688;59.904;10.738;2022-09-09T01:49:16;1.25;;;0.65;;
74293;SDS011;62688;59.904;10.738;2022-09-09T01:51:42;1.02;;;0.47;;
74293;SDS011;62688;59.904;10.738;2022-09-09T01:54:10;0.90;;;0.43;;
74293;SDS011;62688;59.904;10.738;2022-09-09T02:05:37;0.80;;;0.38;;
74293;SDS011;62688;59.904;10.738;2022-09-09T02:10:42;0.95;;;0.22;;
74293;SDS011;62688;59.904;10.738;2022-09-09T02:13:15;1.38;;;0.30;;
74293;SDS011;62688;59.904;10.738;2022-09-09T02:15:56;1.30;;;0.25;;
74293;SDS011;62688;59.904;10.738;2022-09-09T02:21:15;1.45;;;0.40;;
74293;SDS011;62688;59.904;10.738;2022-09-09T02:23:43;0.45;;;0.30;;
74293;SDS011;62688;59.904;10.738;2022-09-09T02:26:12;0.30;;;0.30;;
74293;SDS011;62688;59.904;10.738;2022-09-09T02:28:44;0.47;;;0.40;;
74293;SDS011;62688;59.904;10.738;2022-09-09T02:31:12;0.63;;;0.30;;
74293;SDS011;62688;59.904;10.738;2022-09-09T02:33:43;0.75;;;0.60;;
74293;SDS011;62688;59.904;10.738;2022-09-09T02:36:12;1.40;;;0.28;;
74293;SDS011;62688;59.904;10.738;2022-09-09T02:38:42;0.50;;;0.50;;
74293;SDS011;62688;59.904;10.738;2022-09-09T02:41:15;0.75;;;0.50;;
74293;SDS011;62688;59.904;10.738;2022-09-09T02:43:46;1.02;;;0.50;;
74293;SDS011;62688;59.904;10.738;2022-09-09T02:46:18;2.67;;;0.30;;
74293;SDS011;62688;59.904;10.738;2022-09-09T02:49:10;0.70;;;0.60;;
74293;SDS011;62688;59.904;10.738;2022-09-09T02:56:40;1.80;;;0.30;;
74293;SDS011;62688;59.904;10.738;2022-09-09T02:59:10;1.05;;;0.47;;
74293;SDS011;62688;59.904;10.738;2022-09-09T03:01:36;0.60;;;0.25;;
74293;SDS011;62688;59.904;10.738;2022-09-09T03:04:05;1.85;;;0.60;;
74293;SDS011;62688;59.904;10.738;2022-09-09T03:06:30;1.65;;;0.40;;
74293;SDS011;62688;59.904;10.738;2022-09-09T03:08:56;0.55;;;0.43;;
74293;SDS011;62688;59.904;10.738;2022-09-09T03:11:26;0.55;;;0.40;;
74293;SDS011;62688;59.904;10.738;2022-09-09T03:13:52;0.35;;;0.25;;
74293;SDS011;62688;59.904;10.738;2022-09-09T03:16:20;1.77;;;0.50;;
74293;SDS011;62688;59.904;10.738;2022-09-09T03:18:47;0.30;;;0.30;;
74293;SDS011;62688;59.904;10.738;2022-09-09T03:21:12;0.40;;;0.40;;
74293;SDS011;62688;59.904;10.738;2022-09-09T03:23:38;0.85;;;0.30;;
74293;SDS011;62688;59.904;10.738;2022-09-09T03:26:04;0.30;;;0.30;;
74293;SDS011;62688;59.904;10.738;2022-09-09T03:28:29;1.35;;;0.47;;
74293;SDS011;62688;59.904;10.738;2022-09-09T03:31:02;0.40;;;0.30;;
74293;SDS011;62688;59.904;10.738;2022-09-09T03:33:35;0.50;;;0.50;;
74293;SDS011;62688;59.904;10.738;2022-09-09T03:36:02;1.38;;;0.40;;
74293;SDS011;62688;59.904;10.738;2022-09-09T03:38:28;1.27;;;0.50;;
74293;SDS011;62688;59.904;10.738;2022-09-09T03:40:54;0.35;;;0.32;;
74293;SDS011;62688;59.904;10.738;2022-09-09T03:43:22;1.00;;;0.47;;
74293;SDS011;62688;59.904;10.738;2022-09-09T03:45:49;0.35;;;0.35;;
74293;SDS011;62688;59.904;10.738;2022-09-09T03:48:15;2.80;;;0.30;;
74293;SDS011;62688;59.904;10.738;2022-09-09T03:50:48;0.40;;;0.40;;
74293;SDS011;62688;59.904;10.738;2022-09-09T03:53:18;0.50;;;0.40;;
74293;SDS011;62688;59.904;10.738;2022-09-09T03:55:48;0.30;;;0.30;;
74293;SDS011;62688;59.904;10.738;2022-09-09T03:58:19;0.65;;;0.40;;
74293;SDS011;62688;59.904;10.738;2022-09-09T04:03:31;0.65;;;0.50;;
74293;SDS011;62688;59.904;10.738;2022-09-09T04:05:58;2.05;;;0.40;;
74293;SDS011;62688;59.904;10.738;2022-09-09T04:08:24;1.40;;;0.82;;
74293;SDS011;62688;59.904;10.738;2022-09-09T04:10:51;0.75;;;0.38;;
74293;SDS011;62688;59.904;10.738;2022-09-09T04:13:17;1.63;;;0.30;;
74293;SDS011;62688;59.904;10.738;2022-09-09T04:15:49;2.13;;;0.57;;
74293;SDS011;62688;59.904;10.738;2022-09-09T04:18:19;0.45;;;0.40;;
74293;SDS011;62688;59.904;10.738;2022-09-09T04:20:46;1.30;;;0.70;;
74293;SDS011;62688;59.904;10.738;2022-09-09T04:23:13;1.00;;;0.68;;
74293;SDS011;62688;59.904;10.738;2022-09-09T04:25:43;1.38;;;0.70;;
74293;SDS011;62688;59.904;10.738;2022-09-09T04:31:06;2.88;;;0.50;;
74293;SDS011;62688;59.904;10.738;2022-09-09T04:33:34;1.35;;;0.30;;
74293;SDS011;62688;59.904;10.738;2022-09-09T04:36:00;0.80;;;0.40;;
74293;SDS011;62688;59.904;10.738;2022-09-09T04:38:26;0.30;;;0.30;;
74293;SDS011;62688;59.904;10.738;2022-09-09T04:40:52;0.95;;;0.50;;
74293;SDS011;62688;59.904;10.738;2022-09-09T04:43:19;0.40;;;0.40;;
74293;SDS011;62688;59.904;10.738;2022-09-09T04:45:49;1.80;;;0.50;;
74293;SDS011;62688;59.904;10.738;2022-09-09T04:48:16;1.08;;;0.85;;
74293;SDS011;62688;59.904;10.738;2022-09-09T04:50:42;1.92;;;0.52;;
74293;SDS011;62688;59.904;10.738;2022-09-09T04:53:08;0.50;;;0.50;;
74293;SDS011;62688;59.904;10.738;2022-09-09T04:55:34;1.85;;;0.80;;
74293;SDS011;62688;59.904;10.738;2022-09-09T04:58:06;0.80;;;0.63;;
74293;SDS011;62688;59.904;10.738;2022-09-09T05:00:33;0.70;;;0.47;;
74293;SDS011;62688;59.904;10.738;2022-09-09T05:03:03;0.75;;;0.60;;
74293;SDS011;62688;59.904;10.738;2022-09-09T05:05:30;0.50;;;0.50;;
74293;SDS011;62688;59.904;10.738;2022-09-09T05:08:07;1.15;;;0.98;;
74293;SDS011;62688;59.904;10.738;2022-09-09T05:10:33;0.73;;;0.50;;
74293;SDS011;62688;59.904;10.738;2022-09-09T05:13:02;6.10;;;0.80;;
74293;SDS011;62688;59.904;10.738;2022-09-09T05:15:29;1.90;;;0.38;;
74293;SDS011;62688;59.904;10.738;2022-09-09T05:17:57;0.40;;;0.40;;
74293;SDS011;62688;59.904;10.738;2022-09-09T05:20:24;0.52;;;0.43;;
74293;SDS011;62688;59.904;10.738;2022-09-09T05:22:52;1.33;;;0.50;;
74293;SDS011;62688;59.904;10.738;2022-09-09T05:25:19;0.70;;;0.57;;
74293;SDS011;62688;59.904;10.738;2022-09-09T05:27:44;0.65;;;0.40;;
74293;SDS011;62688;59.904;10.738;2022-09-09T05:30:10;0.57;;;0.40;;
74293;SDS011;62688;59.904;10.738;2022-09-09T05:32:36;3.10;;;0.63;;
74293;SDS011;62688;59.904;10.738;2022-09-09T05:35:02;0.38;;;0.38;;
74293;SDS011;62688;59.904;10.738;2022-09-09T05:37:28;3.33;;;0.60;;
74293;SDS011;62688;59.904;10.738;2022-09-09T05:39:55;1.08;;;0.50;;
74293;SDS011;62688;59.904;10.738;2022-09-09T05:42:21;1.70;;;0.50;;
74293;SDS011;62688;59.904;10.738;2022-09-09T05:44:46;0.55;;;0.43;;
74293;SDS011;62688;59.904;10.738;2022-09-09T05:47:12;0.82;;;0.50;;
74293;SDS011;62688;59.904;10.738;2022-09-09T05:49:37;7.53;;;1.50;;
74293;SDS011;62688;59.904;10.738;2022-09-09T05:52:03;2.40;;;0.70;;
74293;SDS011;62688;59.904;10.738;2022-09-09T05:54:29;2.00;;;0.50;;
74293;SDS011;62688;59.904;10.738;2022-09-09T05:56:55;0.63;;;0.43;;
74293;SDS011;62688;59.904;10.738;2022-09-09T05:59:21;0.55;;;0.43;;
74293;SDS011;62688;59.904;10.738;2022-09-09T06:01:48;0.63;;;0.50;;
74293;SDS011;62688;59.904;10.738;2022-09-09T06:04:14;0.50;;;0.40;;
74293;SDS011;62688;59.904;10.738;2022-09-09T06:06:40;2.05;;;0.80;;
74293;SDS011;62688;59.904;10.738;2022-09-09T06:09:07;2.83;;;0.70;;
74293;SDS011;62688;59.904;10.738;2022-09-09T06:11:35;0.70;;;0.70;;
74293;SDS011;62688;59.904;10.738;2022-09-09T06:14:02;5.72;;;1.05;;
74293;SDS011;62688;59.904;10.738;2022-09-09T06:16:29;1.13;;;0.60;;
74293;SDS011;62688;59.904;10.738;2022-09-09T06:18:57;12.15;;;1.05;;
74293;SDS011;62688;59.904;10.738;2022-09-09T06:21:48;0.95;;;0.95;;
74293;SDS011;62688;59.904;10.738;2022-09-09T06:24:15;1.60;;;0.80;;
74293;SDS011;62688;59.904;10.738;2022-09-09T06:26:42;0.75;;;0.60;;
74293;SDS011;62688;59.904;10.738;2022-09-09T06:29:09;0.95;;;0.60;;
74293;SDS011;62688;59.904;10.738;2022-09-09T06:31:35;0.85;;;0.60;;
74293;SDS011;62688;59.904;10.738;2022-09-09T06:34:03;1.40;;;0.70;;
74293;SDS011;62688;59.904;10.738;2022-09-09T06:36:31;1.02;;;0.60;;
74293;SDS011;62688;59.904;10.738;2022-09-09T06:38:59;0.95;;;0.57;;
74293;SDS011;62688;59.904;10.738;2022-09-09T06:41:26;0.80;;;0.57;;
74293;SDS011;62688;59.904;10.738;2022-09-09T06:43:53;1.10;;;0.70;;
74293;SDS011;62688;59.904;10.738;2022-09-09T06:46:22;0.43;;;0.43;;
74293;SDS011;62688;59.904;10.738;2022-09-09T06:48:52;1.00;;;0.57;;
74293;SDS011;62688;59.904;10.738;2022-09-09T06:51:20;4.63;;;1.50;;
74293;SDS011;62688;59.904;10.738;2022-09-09T06:53:49;2.55;;;1.40;;
74293;SDS011;62688;59.904;10.738;2022-09-09T06:58:41;2.13;;;0.55;;
74293;SDS011;62688;59.904;10.738;2022-09-09T07:01:09;2.33;;;0.80;;
74293;SDS011;62688;59.904;10.738;2022-09-09T07:03:37;6.13;;;1.17;;
74293;SDS011;62688;59.904;10.738;2022-09-09T07:06:04;0.63;;;0.50;;
74293;SDS011;62688;59.904;10.738;2022-09-09T07:08:30;0.43;;;0.40;;
74293;SDS011;62688;59.904;10.738;2022-09-09T07:11:03;1.33;;;0.60;;
74293;SDS011;62688;59.904;10.738;2022-09-09T07:13:30;1.38;;;0.80;;
74293;SDS011;62688;59.904;10.738;2022-09-09T07:16:02;1.30;;;0.68;;
74293;SDS011;62688;59.904;10.738;2022-09-09T07:18:42;1.15;;;1.02;;
74293;SDS011;62688;59.904;10.738;2022-09-09T07:21:09;1.17;;;0.50;;
74293;SDS011;62688;59.904;10.738;2022-09-09T07:23:36;2.00;;;0.60;;
74293;SDS011;62688;59.904;10.738;2022-09-09T07:26:06;1.00;;;0.40;;
74293;SDS011;62688;59.904;10.738;2022-09-09T07:28:37;2.35;;;0.60;;
74293;SDS011;62688;59.904;10.738;2022-09-09T07:31:03;1.23;;;0.57;;
74293;SDS011;62688;59.904;10.738;2022-09-09T07:33:31;0.73;;;0.50;;
74293;SDS011;62688;59.904;10.738;2022-09-09T07:36:04;1.95;;;0.32;;
74293;SDS011;62688;59.904;10.738;2022-09-09T07:38:38;2.20;;;0.30;;
74293;SDS011;62688;59.904;10.738;2022-09-09T07:41:08;0.68;;;0.40;;
74293;SDS011;62688;59.904;10.738;2022-09-09T07:43:37;0.40;;;0.38;;
74293;SDS011;62688;59.904;10.738;2022-09-09T07:46:05;1.40;;;0.60;;
74293;SDS011;62688;59.904;10.738;2022-09-09T07:48:31;1.50;;;0.52;;
74293;SDS011;62688;59.904;10.738;2022-09-09T07:51:11;0.90;;;0.40;;
74293;SDS011;62688;59.904;10.738;2022-09-09T07:53:40;2.55;;;0.60;;
74293;SDS011;62688;59.904;10.738;2022-09-09T07:56:09;1.25;;;0.40;;
74293;SDS011;62688;59.904;10.738;2022-09-09T07:58:36;0.77;;;0.40;;
74293;SDS011;62688;59.904;10.738;2022-09-09T08:01:13;0.40;;;0.40;;
74293;SDS011;62688;59.904;10.738;2022-09-09T08:04:05;0.57;;;0.38;;
74293;SDS011;62688;59.904;10.738;2022-09-09T08:06:34;2.63;;;0.60;;
74293;SDS011;62688;59.904;10.738;2022-09-09T08:09:02;4.25;;;0.68;;
74293;SDS011;62688;59.904;10.738;2022-09-09T08:11:29;1.30;;;0.88;;
74293;SDS011;62688;59.904;10.738;2022-09-09T08:13:55;1.27;;;0.40;;
74293;SDS011;62688;59.904;10.738;2022-09-09T08:16:26;2.38;;;0.50;;
74293;SDS011;62688;59.904;10.738;2022-09-09T08:18:54;2.17;;;0.50;;
74293;SDS011;62688;59.904;10.738;2022-09-09T08:21:24;1.05;;;0.63;;
74293;SDS011;62688;59.904;10.738;2022-09-09T08:23:56;1.75;;;0.50;;
74293;SDS011;62688;59.904;10.738;2022-09-09T08:26:24;0.60;;;0.55;;
74293;SDS011;62688;59.904;10.738;2022-09-09T08:28:53;1.13;;;0.40;;
74293;SDS011;62688;59.904;10.738;2022-09-09T08:31:22;0.50;;;0.50;;
74293;SDS011;62688;59.904;10.738;2022-09-09T08:33:49;0.77;;;0.60;;
74293;SDS011;62688;59.904;10.738;2022-09-09T08:36:22;1.73;;;0.50;;
74293;SDS011;62688;59.904;10.738;2022-09-09T08:38:51;0.68;;;0.50;;
74293;SDS011;62688;59.904;10.738;2022-09-09T08:54:56;5.32;;;0.70;;
74293;SDS011;62688;59.904;10.738;2022-09-09T08:57:28;1.35;;;0.65;;
74293;SDS011;62688;59.904;10.738;2022-09-09T08:59:57;1.00;;;0.60;;
74293;SDS011;62688;59.904;10.738;2022-09-09T09:02:36;0.90;;;0.60;;
74293;SDS011;62688;59.904;10.738;2022-09-09T09:05:29;0.52;;;0.40;;
74293;SDS011;62688;59.904;10.738;2022-09-09T09:10:57;0.60;;;0.60;;
74293;SDS011;62688;59.904;10.738;2022-09-09T09:15:55;1.63;;;0.60;;
74293;SDS011;62688;59.904;10.738;2022-09-09T09:18:25;0.95;;;0.40;;
74293;SDS011;62688;59.904;10.738;2022-09-09T09:23:22;1.80;;;0.60;;
74293;SDS011;62688;59.904;10.738;2022-09-09T09:25:49;0.93;;;0.38;;
74293;SDS011;62688;59.904;10.738;2022-09-09T09:28:22;0.82;;;0.82;;
74293;SDS011;62688;59.904;10.738;2022-09-09T09:36:20;0.95;;;0.55;;
74293;SDS011;62688;59.904;10.738;2022-09-09T09:38:58;0.88;;;0.52;;
74293;SDS011;62688;59.904;10.738;2022-09-09T09:41:43;0.65;;;0.60;;
74293;SDS011;62688;59.904;10.738;2022-09-09T09:46:48;1.65;;;0.88;;
74293;SDS011;62688;59.904;10.738;2022-09-09T09:49:14;4.25;;;0.70;;
74293;SDS011;62688;59.904;10.738;2022-09-09T09:51:40;0.90;;;0.80;;
74293;SDS011;62688;59.904;10.738;2022-09-09T09:56:54;5.72;;;0.80;;
74293;SDS011;62688;59.904;10.738;2022-09-09T10:02:36;1.33;;;0.65;;
74293;SDS011;62688;59.904;10.738;2022-09-09T10:05:03;4.22;;;0.45;;
74293;SDS011;62688;59.904;10.738;2022-09-09T10:07:31;3.38;;;0.40;;
74293;SDS011;62688;59.904;10.738;2022-09-09T10:09:58;2.55;;;0.60;;
74293;SDS011;62688;59.904;10.738;2022-09-09T10:15:26;0.38;;;0.38;;
74293;SDS011;62688;59.904;10.738;2022-09-09T10:46:31;1.38;;;0.50;;
74293;SDS011;62688;59.904;10.738;2022-09-09T10:49:10;0.63;;;0.50;;
74293;SDS011;62688;59.904;10.738;2022-09-09T10:54:42;1.02;;;0.70;;
74293;SDS011;62688;59.904;10.738;2022-09-09T10:57:31;2.15;;;0.65;;
74293;SDS011;62688;59.904;10.738;2022-09-09T10:59:57;1.95;;;0.70;;
74293;SDS011;62688;59.904;10.738;2022-09-09T11:07:34;1.27;;;0.55;;
74293;SDS011;62688;59.904;10.738;2022-09-09T11:10:28;0.77;;;0.70;;
74293;SDS011;62688;59.904;10.738;2022-09-09T11:13:19;1.63;;;0.50;;
74293;SDS011;62688;59.904;10.738;2022-09-09T11:16:13;2.60;;;0.60;;
74293;SDS011;62688;59.904;10.738;2022-09-09T11:18:50;0.65;;;0.43;;
74293;SDS011;62688;59.904;10.738;2022-09-09T11:21:25;2.15;;;0.60;;
74293;SDS011;62688;59.904;10.738;2022-09-09T11:26:55;1.90;;;0.73;;
74293;SDS011;62688;59.904;10.738;2022-09-09T11:35:27;0.80;;;0.80;;
74293;SDS011;62688;59.904;10.738;2022-09-09T11:41:02;1.80;;;0.73;;
74293;SDS011;62688;59.904;10.738;2022-09-09T11:43:33;2.65;;;0.55;;
74293;SDS011;62688;59.904;10.738;2022-09-09T11:46:11;1.15;;;0.77;;
74293;SDS011;62688;59.904;10.738;2022-09-09T11:48:57;3.60;;;1.25;;
74293;SDS011;62688;59.904;10.738;2022-09-09T11:51:26;0.82;;;0.68;;
74293;SDS011;62688;59.904;10.738;2022-09-09T11:53:55;0.95;;;0.70;;
74293;SDS011;62688;59.904;10.738;2022-09-09T11:56:41;0.60;;;0.40;;
74293;SDS011;62688;59.904;10.738;2022-09-09T11:59:27;1.13;;;0.50;;
74293;SDS011;62688;59.904;10.738;2022-09-09T12:01:58;1.88;;;0.60;;
74293;SDS011;62688;59.904;10.738;2022-09-09T12:07:00;1.15;;;0.75;;
74293;SDS011;62688;59.904;10.738;2022-09-09T12:15:24;0.75;;;0.75;;
74293;SDS011;62688;59.904;10.738;2022-09-09T12:17:23;1.00;;;0.57;;
74293;SDS011;62688;59.904;10.738;2022-09-09T12:34:37;0.95;;;0.80;;
74293;SDS011;62688;59.904;10.738;2022-09-09T12:37:25;1.20;;;0.60;;
74293;SDS011;62688;59.904;10.738;2022-09-09T12:40:24;0.98;;;0.50;;
74293;SDS011;62688;59.904;10.738;2022-09-09T12:42:51;1.05;;;0.22;;
74293;SDS011;62688;59.904;10.738;2022-09-09T12:45:24;1.08;;;0.52;;
74293;SDS011;62688;59.904;10.738;2022-09-09T12:48:05;0.60;;;0.50;;
74293;SDS011;62688;59.904;10.738;2022-09-09T12:50:35;0.43;;;0.40;;
74293;SDS011;62688;59.904;10.738;2022-09-09T12:53:12;1.00;;;0.60;;
74293;SDS011;62688;59.904;10.738;2022-09-09T12:55:59;0.70;;;0.68;;
74293;SDS011;62688;59.904;10.738;2022-09-09T12:58:35;1.83;;;0.73;;
74293;SDS011;62688;59.904;10.738;2022-09-09T13:01:03;3.25;;;0.80;;
74293;SDS011;62688;59.904;10.738;2022-09-09T13:03:31;0.55;;;0.40;;
74293;SDS011;62688;59.904;10.738;2022-09-09T13:05:59;1.45;;;0.55;;
74293;SDS011;62688;59.904;10.738;2022-09-09T13:08:36;1.73;;;0.52;;
74293;SDS011;62688;59.904;10.738;2022-09-09T13:11:04;0.43;;;0.40;;
74293;SDS011;62688;59.904;10.738;2022-09-09T13:13:37;1.05;;;0.57;;
74293;SDS011;62688;59.904;10.738;2022-09-09T13:16:05;2.17;;;0.90;;
74293;SDS011;62688;59.904;10.738;2022-09-09T13:18:43;1.05;;;0.57;;
74293;SDS011;62688;59.904;10.738;2022-09-09T13:21:08;0.73;;;0.70;;
74293;SDS011;62688;59.904;10.738;2022-09-09T13:23:35;0.68;;;0.50;;
74293;SDS011;62688;59.904;10.738;2022-09-09T13:26:03;0.40;;;0.35;;
74293;SDS011;62688;59.904;10.738;2022-09-09T13:28:31;0.73;;;0.50;;
74293;SDS011;62688;59.904;10.738;2022-09-09T13:31:01;2.20;;;1.30;;
74293;SDS011;62688;59.904;10.738;2022-09-09T13:33:35;2.80;;;1.70;;
74293;SDS011;62688;59.904;10.738;2022-09-09T13:36:03;1.92;;;1.05;;
74293;SDS011;62688;59.904;10.738;2022-09-09T13:38:33;0.73;;;0.70;;
74293;SDS011;62688;59.904;10.738;2022-09-09T13:41:06;2.15;;;1.17;;
74293;SDS011;62688;59.904;10.738;2022-09-09T13:43:35;2.78;;;0.88;;
74293;SDS011;62688;59.904;10.738;2022-09-09T13:46:21;2.75;;;1.00;;
74293;SDS011;62688;59.904;10.738;2022-09-09T13:54:12;0.65;;;0.50;;
74293;SDS011;62688;59.904;10.738;2022-09-09T13:56:39;0.90;;;0.60;;
74293;SDS011;62688;59.904;10.738;2022-09-09T13:59:09;1.00;;;0.43;;
74293;SDS011;62688;59.904;10.738;2022-09-09T14:01:40;1.25;;;0.60;;
74293;SDS011;62688;59.904;10.738;2022-09-09T14:04:06;0.80;;;0.70;;
74293;SDS011;62688;59.904;10.738;2022-09-09T14:06:33;1.95;;;0.52;;
74293;SDS011;62688;59.904;10.738;2022-09-09T14:09:02;3.03;;;1.50;;
74293;SDS011;62688;59.904;10.738;2022-09-09T14:11:28;1.63;;;1.20;;
74293;SDS011;62688;59.904;10.738;2022-09-09T14:13:57;1.88;;;1.00;;
74293;SDS011;62688;59.904;10.738;2022-09-09T14:16:22;1.52;;;0.70;;
74293;SDS011;62688;59.904;10.738;2022-09-09T14:18:48;1.10;;;0.65;;
74293;SDS011;62688;59.904;10.738;2022-09-09T14:21:13;0.65;;;0.55;;
74293;SDS011;62688;59.904;10.738;2022-09-09T14:23:40;3.70;;;0.70;;
74293;SDS011;62688;59.904;10.738;2022-09-09T14:26:06;2.90;;;1.30;;
74293;SDS011;62688;59.904;10.738;2022-09-09T14:28:32;3.33;;;0.68;;
74293;SDS011;62688;59.904;10.738;2022-09-09T14:30:59;0.60;;;0.57;;
74293;SDS011;62688;59.904;10.738;2022-09-09T14:33:25;1.05;;;0.50;;
74293;SDS011;62688;59.904;10.738;2022-09-09T14:35:57;2.25;;;0.90;;
74293;SDS011;62688;59.904;10.738;2022-09-09T14:38:24;0.55;;;0.47;;
74293;SDS011;62688;59.904;10.738;2022-09-09T14:40:50;0.70;;;0.45;;
74293;SDS011;62688;59.904;10.738;2022-09-09T14:43:15;1.05;;;0.40;;
74293;SDS011;62688;59.904;10.738;2022-09-09T14:45:41;0.50;;;0.50;;
74293;SDS011;62688;59.904;10.738;2022-09-09T14:48:08;0.82;;;0.80;;
74293;SDS011;62688;59.904;10.738;2022-09-09T14:50:33;0.40;;;0.40;;
74293;SDS011;62688;59.904;10.738;2022-09-09T14:53:01;0.47;;;0.47;;
74293;SDS011;62688;59.904;10.738;2022-09-09T14:55:27;1.13;;;0.50;;
74293;SDS011;62688;59.904;10.738;2022-09-09T14:57:54;1.08;;;0.50;;
74293;SDS011;62688;59.904;10.738;2022-09-09T15:00:19;1.13;;;0.60;;
74293;SDS011;62688;59.904;10.738;2022-09-09T15:02:45;3.28;;;0.65;;
74293;SDS011;62688;59.904;10.738;2022-09-09T15:05:11;2.00;;;0.60;;
74293;SDS011;62688;59.904;10.738;2022-09-09T15:07:36;1.10;;;0.68;;
74293;SDS011;62688;59.904;10.738;2022-09-09T15:10:07;1.77;;;0.90;;
74293;SDS011;62688;59.904;10.738;2022-09-09T15:12:33;1.30;;;0.70;;
74293;SDS011;62688;59.904;10.738;2022-09-09T15:15:00;1.42;;;0.90;;
74293;SDS011;62688;59.904;10.738;2022-09-09T15:17:25;2.30;;;0.75;;
74293;SDS011;62688;59.904;10.738;2022-09-09T15:19:52;1.77;;;0.50;;
74293;SDS011;62688;59.904;10.738;2022-09-09T15:22:18;1.55;;;0.70;;
74293;SDS011;62688;59.904;10.738;2022-09-09T15:24:44;0.98;;;0.70;;
74293;SDS011;62688;59.904;10.738;2022-09-09T15:27:09;1.58;;;0.90;;
74293;SDS011;62688;59.904;10.738;2022-09-09T15:29:35;0.60;;;0.60;;
74293;SDS011;62688;59.904;10.738;2022-09-09T15:32:00;2.58;;;0.80;;
74293;SDS011;62688;59.904;10.738;2022-09-09T15:34:26;0.77;;;0.60;;
74293;SDS011;62688;59.904;10.738;2022-09-09T15:36:52;3.35;;;0.77;;
74293;SDS011;62688;59.904;10.738;2022-09-09T15:39:18;1.15;;;0.52;;
74293;SDS011;62688;59.904;10.738;2022-09-09T15:41:44;2.53;;;0.60;;
74293;SDS011;62688;59.904;10.738;2022-09-09T15:44:11;1.58;;;0.77;;
74293;SDS011;62688;59.904;10.738;2022-09-09T15:47:11;1.83;;;0.90;;
74293;SDS011;62688;59.904;10.738;2022-09-09T15:49:30;1.83;;;0.90;;
74293;SDS011;62688;59.904;10.738;2022-09-09T15:51:56;0.80;;;0.75;;
74293;SDS011;62688;59.904;10.738;2022-09-09T15:54:24;0.70;;;0.70;;
74293;SDS011;62688;59.904;10.738;2022-09-09T15:56:57;0.88;;;0.73;;
74293;SDS011;62688;59.904;10.738;2022-09-09T15:59:25;0.88;;;0.60;;
74293;SDS011;62688;59.904;10.738;2022-09-09T16:01:55;0.85;;;0.60;;
74293;SDS011;62688;59.904;10.738;2022-09-09T16:04:22;1.02;;;0.90;;
74293;SDS011;62688;59.904;10.738;2022-09-09T16:06:53;3.60;;;0.85;;
74293;SDS011;62688;59.904;10.738;2022-09-09T16:09:22;2.83;;;1.00;;
74293;SDS011;62688;59.904;10.738;2022-09-09T16:11:48;6.35;;;1.30;;
74293;SDS011;62688;59.904;10.738;2022-09-09T16:14:14;0.63;;;0.63;;
74293;SDS011;62688;59.904;10.738;2022-09-09T16:16:40;1.42;;;0.90;;
74293;SDS011;62688;59.904;10.738;2022-09-09T16:19:07;1.95;;;0.73;;
74293;SDS011;62688;59.904;10.738;2022-09-09T16:21:36;0.80;;;0.68;;
74293;SDS011;62688;59.904;10.738;2022-09-09T16:24:05;3.30;;;0.57;;
74293;SDS011;62688;59.904;10.738;2022-09-09T16:26:33;1.73;;;0.80;;
74293;SDS011;62688;59.904;10.738;2022-09-09T16:29:00;0.77;;;0.68;;
74293;SDS011;62688;59.904;10.738;2022-09-09T16:31:27;1.23;;;0.60;;
74293;SDS011;62688;59.904;10.738;2022-09-09T16:33:54;1.00;;;0.85;;
74293;SDS011;62688;59.904;10.738;2022-09-09T16:36:30;1.73;;;0.93;;
74293;SDS011;62688;59.904;10.738;2022-09-09T16:38:59;0.82;;;0.80;;
74293;SDS011;62688;59.904;10.738;2022-09-09T16:41:27;1.00;;;0.80;;
74293;SDS011;62688;59.904;10.738;2022-09-09T16:43:54;2.35;;;0.80;;
74293;SDS011;62688;59.904;10.738;2022-09-09T16:46:22;3.38;;;1.35;;
74293;SDS011;62688;59.904;10.738;2022-09-09T16:48:49;2.00;;;0.70;;
74293;SDS011;62688;59.904;10.738;2022-09-09T16:51:18;1.83;;;0.90;;
74293;SDS011;62688;59.904;10.738;2022-09-09T16:53:46;1.45;;;0.60;;
74293;SDS011;62688;59.904;10.738;2022-09-09T16:56:13;1.80;;;1.42;;
74293;SDS011;62688;59.904;10.738;2022-09-09T16:58:44;0.50;;;0.50;;
74293;SDS011;62688;59.904;10.738;2022-09-09T17:01:15;1.00;;;0.70;;
74293;SDS011;62688;59.904;10.738;2022-09-09T17:03:41;1.85;;;1.00;;
74293;SDS011;62688;59.904;10.738;2022-09-09T17:06:10;3.25;;;1.45;;
74293;SDS011;62688;59.904;10.738;2022-09-09T17:08:40;1.30;;;1.00;;
74293;SDS011;62688;59.904;10.738;2022-09-09T17:11:19;1.20;;;0.90;;
74293;SDS011;62688;59.904;10.738;2022-09-09T17:13:45;2.42;;;1.30;;
74293;SDS011;62688;59.904;10.738;2022-09-09T17:16:12;2.17;;;1.45;;
74293;SDS011;62688;59.904;10.738;2022-09-09T17:18:39;2.63;;;1.33;;
74293;SDS011;62688;59.904;10.738;2022-09-09T17:21:10;2.58;;;1.38;;
74293;SDS011;62688;59.904;10.738;2022-09-09T17:23:39;1.75;;;1.02;;
74293;SDS011;62688;59.904;10.738;2022-09-09T17:26:05;2.17;;;1.30;;
74293;SDS011;62688;59.904;10.738;2022-09-09T17:28:33;1.80;;;1.33;;
74293;SDS011;62688;59.904;10.738;2022-09-09T17:30:59;3.70;;;1.70;;
74293;SDS011;62688;59.904;10.738;2022-09-09T17:33:26;3.00;;;1.60;;
74293;SDS011;62688;59.904;10.738;2022-09-09T17:35:55;2.83;;;1.40;;
74293;SDS011;62688;59.904;10.738;2022-09-09T17:38:26;3.88;;;1.20;;
74293;SDS011;62688;59.904;10.738;2022-09-09T17:41:07;4.15;;;1.23;;
74293;SDS011;62688;59.904;10.738;2022-09-09T17:43:37;2.45;;;1.58;;
74293;SDS011;62688;59.904;10.738;2022-09-09T17:46:12;2.75;;;1.58;;
74293;SDS011;62688;59.904;10.738;2022-09-09T17:48:40;2.95;;;1.50;;
74293;SDS011;62688;59.904;10.738;2022-09-09T17:51:07;1.55;;;1.10;;
74293;SDS011;62688;59.904;10.738;2022-09-09T17:53:41;3.13;;;0.90;;
74293;SDS011;62688;59.904;10.738;2022-09-09T17:56:09;3.15;;;1.10;;
74293;SDS011;62688;59.904;10.738;2022-09-09T17:58:36;1.48;;;1.08;;
74293;SDS011;62688;59.904;10.738;2022-09-09T18:01:03;1.98;;;1.30;;